Gistel, Belgium
Current Conditions -  °F | °C
As of 2:20 PM on Sunday 21 Dec 2014 (Local Time) from EBOS Reporting Station
Broken Clouds Broken Clouds  
Wind Chill: 41°   Ceiling: 2000
Heat Index: 46°   Visibility: 6mi
Dew Point: 46°   Wind: 13mph
Humidity: 100%   Direction: 240°WSW
Pressure: 30.33"   Gusts: NA
Location:  51.16°N, 2.96°E
Report Text: EBOS 211320Z 24011KT 9999 FEW004 SCT011 BKN020 08/08 Q1027 TEMPO 3000 RADZ BKN012
Loading
Personal Weather Stations






























Interactive Weather Map New forecast layout! Learn more

10-Day Weather Forecast

Advertisements
Track Severe Weather on mobile